• Join FlightAware (Why Join?)
  • Login
  • US Flag 
07:08PM EST


 

Airport Tracker/Info


-or-


 

Live Flight TrackerFlight Track Log ✈ TRS308 ✈ 04-May-2013 ✈ KGRR - KBWI

Flight Track Log - Related Links

Times and Time Zones

All times are in EDT time to prevent confusion due to time zone crossing. See the TRS308 flight status page for this flight to view local times or setup timezone preferences in your user account.

Time Position Orientation Groundspeed Altitude Reporting Facility
EDT Latitude Longitude Course Direction KTS MPH feet Rate Location/Type
05:57AM 42.8881 -85.4714 124° Southeast 168 193 2,700  Level Chicago Center
05:58AM 42.8633 -85.3975 115° Southeast 198 228 4,500 1,680 Climbing Chicago Center
05:59AM 42.8164 -85.3383 137° Southeast 223 257 6,200 1,980 Climbing Chicago Center
06:00AM 42.7631 -85.2750 139° Southeast 247 284 8,500 2,100 Climbing Chicago Center
06:01AM 42.7089 -85.2114 139° Southeast 256 295 10,500 1,500 Climbing Chicago Center
06:02AM 42.5360 -84.8052 124° Southeast  Level FlightAware Approximate
06:02AM 42.6564 -85.1211 128° Southeast 311 358 11,600  Level Chicago Center
06:03AM 42.6150 -85.0072 116° Southeast 335 386 13,300 1,740 Climbing Chicago Center
06:04AM 42.5731 -84.8883 116° Southeast 347 399 15,200 1,740 Climbing Chicago Center
06:05AM 42.5294 -84.7678 116° Southeast 357 411 16,900 1,560 Climbing Chicago Center
06:06AM 42.4844 -84.6422 116° Southeast 369 425 18,400 1,560 Climbing Chicago Center
06:07AM 42.4269 -84.4936 118° Southeast 366 421 20,300 1,680 Climbing Cleveland Center
06:08AM 42.3775 -84.3583 116° Southeast 378 435 22,000 1,560 Climbing Cleveland Center
06:09AM 42.3297 -84.2233 116° Southeast 389 448 23,500 1,440 Climbing Cleveland Center
06:10AM 42.2775 -84.0858 117° Southeast 399 459 24,900 1,260 Climbing Cleveland Center
06:11AM 42.2314 -83.9569 116° Southeast 416 479 26,100 1,020 Climbing Cleveland Center
06:12AM 42.1769 -83.8167 118° Southeast 416 479 27,000 960 Climbing Cleveland Center
06:13AM 42.1247 -83.6683 115° Southeast 421 484 28,100 1,140 Climbing Cleveland Center
06:14AM 42.0703 -83.5231 117° Southeast 427 491 29,300 1,140 Climbing Cleveland Center
06:15AM 42.0011 -83.3717 122° Southeast 438 504 30,400 1,200 Climbing Cleveland Center
06:16AM 41.9333 -83.2378 124° Southeast 438 504 31,700 1,080 Climbing Cleveland Center
06:17AM 41.8714 -83.1236 126° Southeast 432 497 32,600 600 Climbing Cleveland Center
06:18AM 41.7992 -82.9925 126° Southeast 432 497 33,000 180 Climbing Cleveland Center
06:19AM 41.7331 -82.8619 124° Southeast 432 497 33,000  Level Cleveland Center
06:20AM 41.6583 -82.7400 129° Southeast 432 497 33,000  Level Cleveland Center
06:21AM 41.5750 -82.6094 130° Southeast 422 486 33,000  Level Cleveland Center
06:22AM 41.5000 -82.4906 130° Southeast 422 486 33,000  Level Cleveland Center
06:23AM 41.4206 -82.3719 132° Southeast 422 486 33,000  Level Cleveland Center
06:24AM 41.3433 -82.2536 131° Southeast 422 486 33,000  Level Cleveland Center
06:25AM 41.2658 -82.1328 130° Southeast 428 493 33,000  Level Cleveland Center
06:26AM 41.1900 -82.0125 130° Southeast 428 493 33,000  Level Cleveland Center
06:27AM 41.1081 -81.8922 132° Southeast 438 504 33,000  Level Cleveland Center
06:28AM 41.0303 -81.7694 130° Southeast 438 504 33,000  Level Cleveland Center
06:29AM 40.9503 -81.6497 131° Southeast 438 504 33,000  Level Cleveland Center
06:30AM 40.8719 -81.5306 131° Southeast 438 504 33,000  Level Cleveland Center
06:31AM 40.8000 -81.4253 132° Southeast 433 498 33,000  Level Cleveland Center
06:32AM 40.7194 -81.3036 131° Southeast 433 498 33,000  Level Cleveland Center
06:33AM 40.6408 -81.1878 132° Southeast 438 504 33,000  Level Cleveland Center
06:34AM 40.5561 -81.0531 130° Southeast 438 504 33,000  Level Cleveland Center
06:35AM 40.4753 -80.9325 131° Southeast 438 504 33,000  Level Cleveland Center
06:36AM 40.3964 -80.8147 131° Southeast 438 504 33,000  Level Cleveland Center
06:37AM 40.3214 -80.7056 132° Southeast 438 504 33,000  Level Cleveland Center
06:38AM 40.2403 -80.5858 132° Southeast 438 504 33,000  Level Cleveland Center
06:39AM 40.1567 -80.4664 132° Southeast 438 504 33,000  Level Cleveland Center
06:40AM 40.0753 -80.3469 132° Southeast 438 504 33,000  Level Cleveland Center
06:42AM 39.9614 -80.0256 115° Southeast 433 498 33,000  Level Washington Center
06:43AM 39.9147 -79.8739 112° Southeast 443 510 33,000  Level Washington Center
06:44AM 39.8658 -79.7222 113° Southeast 449 517 33,000  Level Washington Center
06:45AM 39.8189 -79.5736 112° Southeast 449 517 33,000 -960 Level Washington Center
06:46AM 39.7697 -79.4197 113° Southeast 449 517 31,100 -2,400 Descending Washington Center
06:47AM 39.7219 -79.2742 113° Southeast 449 517 28,300 -2,700 Descending Washington Center
06:48AM 39.6764 -79.1289 112° Southeast 443 510 25,800 -1,620 Descending Washington Center
06:49AM 39.6408 -78.9869 108° East 433 498 25,000 -660 Descending Washington Center
06:50AM 39.6036 -78.8236 106° East 433 498 24,600 -1,920 Descending Washington Center
06:51AM 39.5722 -78.6767 105° East 423 487 21,200 -3,120 Descending Washington Center
06:52AM 39.5422 -78.5383 106° East 413 475 18,500 -1,800 Descending Washington Center
06:53AM 39.5119 -78.4161 108° East 387 445 17,700 -1,020 Descending Washington Center
06:54AM 39.4856 -78.2886 105° East 366 421 16,500 -1,200 Descending Washington Center
06:55AM 39.4592 -78.1639 105° East 361 415 15,300 -1,080 Descending Washington Center
06:56AM 39.4556 -78.0375 92° East 356 410 14,400 -840 Descending Washington Center
06:57AM 39.4517 -77.9111 92° East 351 404 13,700 -840 Descending Washington Center
06:58AM 39.4519 -77.7900 90° East 346 398 12,800 -840 Descending Washington Center
06:59AM 39.4500 -77.6664 91° East 346 398 12,100 -720 Descending Washington Center
07:00AM 39.4456 -77.5533 93° East 334 384 11,400 -540 Descending Washington Center
07:01AM 39.4450 -77.4511 90° East 303 349 11,100 -180 Descending Washington Center
07:02AM 39.4444 -77.3517 90° East 283 326 11,100  Level Washington Center
07:02AM 39.4500 -77.3167 78° East 279 321 11,100 -600 Level Potomac TRACON
07:03AM 39.4667 -77.2167 78° East 281 323 10,400 -1,500 Descending Potomac TRACON
07:04AM 39.4667 -77.1167 90° East 271 312 8,100 -2,460 Descending Potomac TRACON
07:05AM 39.4667 -77.0500 90° East 264 304 5,800 -2,460 Descending Potomac TRACON
07:06AM 39.4000 -76.9833 142° Southeast 253 291 3,500 -1,740 Descending Potomac TRACON
07:07AM 39.3667 -76.9333 131° Southeast 234 269 2,500 -540 Descending Potomac TRACON
07:08AM 39.3000 -76.8833 150° Southeast 235 270 2,500  Level Potomac TRACON
07:09AM 39.2500 -76.8500 153° Southeast 199 229 2,500 -300 Level Potomac TRACON
07:10AM 39.2167 -76.8000 131° Southeast 187 215 2,000 -300 Descending Potomac TRACON
07:11AM 39.1667 -76.7833 166° South 186 214 2,000  Level Potomac TRACON
07:12AM 39.1167 -76.7833 180° South 188 216 2,000  Level Potomac TRACON
07:13AM 39.1000 -76.8333 247° West 212 244 2,100  Climbing Potomac TRACON
07:14AM 39.1167 -76.9167 284° West 207 238 2,100 -60 Level Potomac TRACON
07:15AM 39.1500 -76.9500 322° Northwest 198 228 2,000 -60 Descending Potomac TRACON
07:16AM 39.1833 -76.9167 38° Northeast 174 200 2,000  Level Potomac TRACON
07:17AM 39.1833 -76.8667 90° East 155 178 2,000 -60 Level Potomac TRACON
07:18AM 39.1833 -76.8000 90° East 155 178 1,900 -480 Descending Potomac TRACON
07:19AM 39.1833 -76.7500 90° East 135 155 1,100 -720 Descending Potomac TRACON
07:20AM 39.1833 -76.7000 90° East 132 152 500 -600 Descending Potomac TRACON